sensor_id;sensor_type;location;lat;lon;timestamp;temperature;humidity
52415;DHT22;38340;52.964;6.086;2022-08-19T00:01:24;15.00;99.90
52415;DHT22;38340;52.964;6.086;2022-08-19T00:03:50;15.00;99.90
52415;DHT22;38340;52.964;6.086;2022-08-19T00:06:16;15.00;99.90
52415;DHT22;38340;52.964;6.086;2022-08-19T00:08:42;15.00;99.90
52415;DHT22;38340;52.964;6.086;2022-08-19T00:11:09;15.00;99.90
52415;DHT22;38340;52.964;6.086;2022-08-19T00:13:35;14.90;99.90
52415;DHT22;38340;52.964;6.086;2022-08-19T00:16:01;15.00;99.90
52415;DHT22;38340;52.964;6.086;2022-08-19T00:18:27;14.90;99.90
52415;DHT22;38340;52.964;6.086;2022-08-19T00:20:53;14.80;99.90
52415;DHT22;38340;52.964;6.086;2022-08-19T00:23:19;14.70;99.90
52415;DHT22;38340;52.964;6.086;2022-08-19T00:25:45;14.70;99.90
52415;DHT22;38340;52.964;6.086;2022-08-19T00:28:11;14.50;99.90
52415;DHT22;38340;52.964;6.086;2022-08-19T00:30:36;14.50;99.90
52415;DHT22;38340;52.964;6.086;2022-08-19T00:33:02;14.40;99.90
52415;DHT22;38340;52.964;6.086;2022-08-19T00:35:28;14.40;99.90
52415;DHT22;38340;52.964;6.086;2022-08-19T00:37:54;14.30;99.90
52415;DHT22;38340;52.964;6.086;2022-08-19T00:40:21;14.40;99.90
52415;DHT22;38340;52.964;6.086;2022-08-19T00:42:47;14.40;99.90
52415;DHT22;38340;52.964;6.086;2022-08-19T00:45:18;14.40;99.90
52415;DHT22;38340;52.964;6.086;2022-08-19T00:47:46;14.30;99.90
52415;DHT22;38340;52.964;6.086;2022-08-19T00:50:14;14.30;99.90
52415;DHT22;38340;52.964;6.086;2022-08-19T00:52:43;14.40;99.90
52415;DHT22;38340;52.964;6.086;2022-08-19T00:55:20;14.30;99.90
52415;DHT22;38340;52.964;6.086;2022-08-19T00:57:53;14.30;99.90
52415;DHT22;38340;52.964;6.086;2022-08-19T01:00:23;14.30;99.90
52415;DHT22;38340;52.964;6.086;2022-08-19T01:02:49;14.30;99.90
52415;DHT22;38340;52.964;6.086;2022-08-19T01:05:20;14.20;99.90
52415;DHT22;38340;52.964;6.086;2022-08-19T01:07:47;14.30;99.90
52415;DHT22;38340;52.964;6.086;2022-08-19T01:10:21;14.10;99.90
52415;DHT22;38340;52.964;6.086;2022-08-19T01:12:49;14.10;99.90
52415;DHT22;38340;52.964;6.086;2022-08-19T01:15:18;14.10;99.90
52415;DHT22;38340;52.964;6.086;2022-08-19T01:17:45;14.00;99.90
52415;DHT22;38340;52.964;6.086;2022-08-19T01:20:19;14.10;99.90
52415;DHT22;38340;52.964;6.086;2022-08-19T01:22:49;14.00;99.90
52415;DHT22;38340;52.964;6.086;2022-08-19T01:25:18;14.10;99.90
52415;DHT22;38340;52.964;6.086;2022-08-19T01:27:47;14.00;99.90
52415;DHT22;38340;52.964;6.086;2022-08-19T01:30:16;14.10;99.90
52415;DHT22;38340;52.964;6.086;2022-08-19T01:32:43;14.00;99.90
52415;DHT22;38340;52.964;6.086;2022-08-19T01:35:10;14.10;99.90
52415;DHT22;38340;52.964;6.086;2022-08-19T01:37:48;14.10;99.90
52415;DHT22;38340;52.964;6.086;2022-08-19T01:40:14;14.10;99.90
52415;DHT22;38340;52.964;6.086;2022-08-19T01:42:40;14.00;99.90
52415;DHT22;38340;52.964;6.086;2022-08-19T01:45:07;13.90;99.90
52415;DHT22;38340;52.964;6.086;2022-08-19T01:47:35;13.90;99.90
52415;DHT22;38340;52.964;6.086;2022-08-19T01:50:01;13.90;99.90
52415;DHT22;38340;52.964;6.086;2022-08-19T01:52:27;14.00;99.90
52415;DHT22;38340;52.964;6.086;2022-08-19T01:54:53;13.90;99.90
52415;DHT22;38340;52.964;6.086;2022-08-19T01:57:19;13.90;99.90
52415;DHT22;38340;52.964;6.086;2022-08-19T01:59:45;13.90;99.90
52415;DHT22;38340;52.964;6.086;2022-08-19T02:02:11;14.00;99.90
52415;DHT22;38340;52.964;6.086;2022-08-19T02:04:37;14.00;99.90
52415;DHT22;38340;52.964;6.086;2022-08-19T02:07:04;14.10;99.90
52415;DHT22;38340;52.964;6.086;2022-08-19T02:09:31;14.00;99.90
52415;DHT22;38340;52.964;6.086;2022-08-19T02:11:57;14.00;99.90
52415;DHT22;38340;52.964;6.086;2022-08-19T02:14:22;13.90;99.90
52415;DHT22;38340;52.964;6.086;2022-08-19T02:16:48;13.90;99.90
52415;DHT22;38340;52.964;6.086;2022-08-19T02:19:14;13.80;99.90
52415;DHT22;38340;52.964;6.086;2022-08-19T02:21:40;13.70;99.90
52415;DHT22;38340;52.964;6.086;2022-08-19T02:24:06;13.80;99.90
52415;DHT22;38340;52.964;6.086;2022-08-19T02:26:32;13.70;99.90
52415;DHT22;38340;52.964;6.086;2022-08-19T02:28:59;13.80;99.90
52415;DHT22;38340;52.964;6.086;2022-08-19T02:31:26;13.80;99.90
52415;DHT22;38340;52.964;6.086;2022-08-19T02:33:53;13.70;99.90
52415;DHT22;38340;52.964;6.086;2022-08-19T02:36:21;13.80;99.90
52415;DHT22;38340;52.964;6.086;2022-08-19T02:38:47;13.70;99.90
52415;DHT22;38340;52.964;6.086;2022-08-19T02:41:18;13.70;99.90
52415;DHT22;38340;52.964;6.086;2022-08-19T02:43:45;13.70;99.90
52415;DHT22;38340;52.964;6.086;2022-08-19T02:46:13;13.60;99.90
52415;DHT22;38340;52.964;6.086;2022-08-19T02:48:39;13.60;99.90
52415;DHT22;38340;52.964;6.086;2022-08-19T02:51:04;13.60;99.90
52415;DHT22;38340;52.964;6.086;2022-08-19T02:53:30;13.60;99.90
52415;DHT22;38340;52.964;6.086;2022-08-19T02:55:56;13.50;99.90
52415;DHT22;38340;52.964;6.086;2022-08-19T02:58:23;13.50;99.90
52415;DHT22;38340;52.964;6.086;2022-08-19T03:00:52;13.60;99.90
52415;DHT22;38340;52.964;6.086;2022-08-19T03:03:18;13.60;99.90
52415;DHT22;38340;52.964;6.086;2022-08-19T03:05:45;13.70;99.90
52415;DHT22;38340;52.964;6.086;2022-08-19T03:08:12;13.60;99.90
52415;DHT22;38340;52.964;6.086;2022-08-19T03:10:43;13.70;99.90
52415;DHT22;38340;52.964;6.086;2022-08-19T03:13:11;13.80;99.90
52415;DHT22;38340;52.964;6.086;2022-08-19T03:15:42;13.80;99.90
52415;DHT22;38340;52.964;6.086;2022-08-19T03:18:08;13.90;99.90
52415;DHT22;38340;52.964;6.086;2022-08-19T03:20:46;13.90;99.90
52415;DHT22;38340;52.964;6.086;2022-08-19T03:23:12;13.90;99.90
52415;DHT22;38340;52.964;6.086;2022-08-19T03:25:39;13.90;99.90
52415;DHT22;38340;52.964;6.086;2022-08-19T03:28:07;13.70;99.90
52415;DHT22;38340;52.964;6.086;2022-08-19T03:30:33;13.70;99.90
52415;DHT22;38340;52.964;6.086;2022-08-19T03:32:58;13.70;99.90
52415;DHT22;38340;52.964;6.086;2022-08-19T03:35:24;13.70;99.90
52415;DHT22;38340;52.964;6.086;2022-08-19T03:37:50;13.70;99.90
52415;DHT22;38340;52.964;6.086;2022-08-19T03:40:16;13.60;99.90
52415;DHT22;38340;52.964;6.086;2022-08-19T03:42:44;13.60;99.90
52415;DHT22;38340;52.964;6.086;2022-08-19T03:45:11;13.60;99.90
52415;DHT22;38340;52.964;6.086;2022-08-19T03:47:37;13.60;99.90
52415;DHT22;38340;52.964;6.086;2022-08-19T03:50:04;13.60;99.90
52415;DHT22;38340;52.964;6.086;2022-08-19T03:52:30;13.60;99.90
52415;DHT22;38340;52.964;6.086;2022-08-19T03:54:55;13.60;99.90
52415;DHT22;38340;52.964;6.086;2022-08-19T03:57:21;13.60;99.90
52415;DHT22;38340;52.964;6.086;2022-08-19T03:59:47;13.70;99.90
52415;DHT22;38340;52.964;6.086;2022-08-19T04:02:13;13.60;99.90
52415;DHT22;38340;52.964;6.086;2022-08-19T04:04:41;13.60;99.90
52415;DHT22;38340;52.964;6.086;2022-08-19T04:07:09;13.60;99.90
52415;DHT22;38340;52.964;6.086;2022-08-19T04:09:35;13.60;99.90
52415;DHT22;38340;52.964;6.086;2022-08-19T04:12:04;13.60;99.90
52415;DHT22;38340;52.964;6.086;2022-08-19T04:14:31;13.50;99.90
52415;DHT22;38340;52.964;6.086;2022-08-19T04:16:59;13.50;99.90
52415;DHT22;38340;52.964;6.086;2022-08-19T04:19:25;13.40;99.90
52415;DHT22;38340;52.964;6.086;2022-08-19T04:21:53;13.40;99.90
52415;DHT22;38340;52.964;6.086;2022-08-19T04:24:20;13.40;99.90
52415;DHT22;38340;52.964;6.086;2022-08-19T04:26:47;13.50;99.90
52415;DHT22;38340;52.964;6.086;2022-08-19T04:29:17;13.50;99.90
52415;DHT22;38340;52.964;6.086;2022-08-19T04:31:44;13.50;99.90
52415;DHT22;38340;52.964;6.086;2022-08-19T04:34:12;13.50;99.90
52415;DHT22;38340;52.964;6.086;2022-08-19T04:36:40;13.40;99.90
52415;DHT22;38340;52.964;6.086;2022-08-19T04:39:13;13.50;99.90
52415;DHT22;38340;52.964;6.086;2022-08-19T04:41:39;13.50;99.90
52415;DHT22;38340;52.964;6.086;2022-08-19T04:44:24;13.40;99.90
52415;DHT22;38340;52.964;6.086;2022-08-19T04:46:51;13.40;99.90
52415;DHT22;38340;52.964;6.086;2022-08-19T04:49:18;13.40;99.90
52415;DHT22;38340;52.964;6.086;2022-08-19T04:51:46;13.40;99.90
52415;DHT22;38340;52.964;6.086;2022-08-19T04:54:13;13.40;99.90
52415;DHT22;38340;52.964;6.086;2022-08-19T04:56:40;13.40;99.90
52415;DHT22;38340;52.964;6.086;2022-08-19T04:59:06;13.40;99.90
52415;DHT22;38340;52.964;6.086;2022-08-19T05:01:34;13.40;99.90
52415;DHT22;38340;52.964;6.086;2022-08-19T05:04:03;13.40;99.90
52415;DHT22;38340;52.964;6.086;2022-08-19T05:06:31;13.50;99.90
52415;DHT22;38340;52.964;6.086;2022-08-19T05:09:03;13.50;99.90
52415;DHT22;38340;52.964;6.086;2022-08-19T05:11:32;13.70;99.90
52415;DHT22;38340;52.964;6.086;2022-08-19T05:13:58;13.80;99.90
52415;DHT22;38340;52.964;6.086;2022-08-19T05:16:25;14.00;99.90
52415;DHT22;38340;52.964;6.086;2022-08-19T05:18:51;14.10;99.90
52415;DHT22;38340;52.964;6.086;2022-08-19T05:21:36;14.20;99.90
52415;DHT22;38340;52.964;6.086;2022-08-19T05:24:21;14.30;99.90
52415;DHT22;38340;52.964;6.086;2022-08-19T05:26:50;14.50;99.90
52415;DHT22;38340;52.964;6.086;2022-08-19T05:29:19;14.60;99.90
52415;DHT22;38340;52.964;6.086;2022-08-19T05:31:46;14.90;99.90
52415;DHT22;38340;52.964;6.086;2022-08-19T05:34:12;15.20;99.90
52415;DHT22;38340;52.964;6.086;2022-08-19T05:36:41;15.40;99.90
52415;DHT22;38340;52.964;6.086;2022-08-19T05:39:10;15.50;99.90
52415;DHT22;38340;52.964;6.086;2022-08-19T05:41:37;15.60;99.90
52415;DHT22;38340;52.964;6.086;2022-08-19T05:44:06;15.80;99.90
52415;DHT22;38340;52.964;6.086;2022-08-19T05:46:35;15.90;99.90
52415;DHT22;38340;52.964;6.086;2022-08-19T05:49:03;16.00;99.90
52415;DHT22;38340;52.964;6.086;2022-08-19T05:51:30;16.10;99.90
52415;DHT22;38340;52.964;6.086;2022-08-19T05:53:56;16.30;99.90
52415;DHT22;38340;52.964;6.086;2022-08-19T05:56:21;16.30;99.90
52415;DHT22;38340;52.964;6.086;2022-08-19T05:58:47;16.50;99.90
52415;DHT22;38340;52.964;6.086;2022-08-19T06:01:15;16.60;99.90
52415;DHT22;38340;52.964;6.086;2022-08-19T06:03:41;16.70;99.90
52415;DHT22;38340;52.964;6.086;2022-08-19T06:06:09;16.90;99.90
52415;DHT22;38340;52.964;6.086;2022-08-19T06:08:36;16.80;99.90
52415;DHT22;38340;52.964;6.086;2022-08-19T06:11:18;16.90;99.90
52415;DHT22;38340;52.964;6.086;2022-08-19T06:13:46;17.00;99.90
52415;DHT22;38340;52.964;6.086;2022-08-19T06:16:16;17.20;99.90
52415;DHT22;38340;52.964;6.086;2022-08-19T06:18:51;17.30;99.90
52415;DHT22;38340;52.964;6.086;2022-08-19T06:21:19;17.30;99.90
52415;DHT22;38340;52.964;6.086;2022-08-19T06:23:46;17.40;99.90
52415;DHT22;38340;52.964;6.086;2022-08-19T06:26:14;17.50;99.90
52415;DHT22;38340;52.964;6.086;2022-08-19T06:28:40;17.50;99.90
52415;DHT22;38340;52.964;6.086;2022-08-19T06:31:12;17.60;99.90
52415;DHT22;38340;52.964;6.086;2022-08-19T06:33:40;17.60;99.90
52415;DHT22;38340;52.964;6.086;2022-08-19T06:36:06;17.70;99.90
52415;DHT22;38340;52.964;6.086;2022-08-19T06:38:32;17.90;99.90
52415;DHT22;38340;52.964;6.086;2022-08-19T06:41:03;18.00;99.90
52415;DHT22;38340;52.964;6.086;2022-08-19T06:43:29;18.20;99.90
52415;DHT22;38340;52.964;6.086;2022-08-19T06:45:54;18.20;99.90
52415;DHT22;38340;52.964;6.086;2022-08-19T06:48:20;18.40;99.90
52415;DHT22;38340;52.964;6.086;2022-08-19T06:50:46;18.40;99.90
52415;DHT22;38340;52.964;6.086;2022-08-19T06:53:12;18.50;99.90
52415;DHT22;38340;52.964;6.086;2022-08-19T06:55:38;18.60;99.90
52415;DHT22;38340;52.964;6.086;2022-08-19T06:58:04;18.70;99.90
52415;DHT22;38340;52.964;6.086;2022-08-19T07:00:30;18.90;99.90
52415;DHT22;38340;52.964;6.086;2022-08-19T07:02:56;18.90;99.90
52415;DHT22;38340;52.964;6.086;2022-08-19T07:05:22;19.10;99.90
52415;DHT22;38340;52.964;6.086;2022-08-19T07:07:48;19.20;99.90
52415;DHT22;38340;52.964;6.086;2022-08-19T07:10:13;19.30;99.90
52415;DHT22;38340;52.964;6.086;2022-08-19T07:12:39;19.30;99.90
52415;DHT22;38340;52.964;6.086;2022-08-19T07:15:06;19.40;99.90
52415;DHT22;38340;52.964;6.086;2022-08-19T07:17:34;19.60;99.90
52415;DHT22;38340;52.964;6.086;2022-08-19T07:20:01;19.80;99.90
52415;DHT22;38340;52.964;6.086;2022-08-19T07:22:27;20.00;99.90
52415;DHT22;38340;52.964;6.086;2022-08-19T07:24:52;20.10;99.90
52415;DHT22;38340;52.964;6.086;2022-08-19T07:27:18;20.30;99.90
52415;DHT22;38340;52.964;6.086;2022-08-19T07:29:44;20.30;99.90
52415;DHT22;38340;52.964;6.086;2022-08-19T07:32:11;20.40;99.90
52415;DHT22;38340;52.964;6.086;2022-08-19T07:34:37;20.60;99.90
52415;DHT22;38340;52.964;6.086;2022-08-19T07:37:06;20.60;99.90
52415;DHT22;38340;52.964;6.086;2022-08-19T07:39:34;20.90;99.90
52415;DHT22;38340;52.964;6.086;2022-08-19T07:42:05;21.00;99.90
52415;DHT22;38340;52.964;6.086;2022-08-19T07:44:32;21.20;99.90
52415;DHT22;38340;52.964;6.086;2022-08-19T07:46:59;21.40;99.90
52415;DHT22;38340;52.964;6.086;2022-08-19T07:49:26;21.50;99.90
52415;DHT22;38340;52.964;6.086;2022-08-19T07:51:53;21.50;99.90
52415;DHT22;38340;52.964;6.086;2022-08-19T07:54:21;21.60;99.90
52415;DHT22;38340;52.964;6.086;2022-08-19T07:56:47;21.60;99.90
52415;DHT22;38340;52.964;6.086;2022-08-19T07:59:13;21.70;99.90
52415;DHT22;38340;52.964;6.086;2022-08-19T08:01:39;21.60;99.90
52415;DHT22;38340;52.964;6.086;2022-08-19T08:04:06;21.80;99.90
52415;DHT22;38340;52.964;6.086;2022-08-19T08:06:52;21.90;99.90
52415;DHT22;38340;52.964;6.086;2022-08-19T08:09:40;22.00;99.90
52415;DHT22;38340;52.964;6.086;2022-08-19T08:12:13;22.20;99.90
52415;DHT22;38340;52.964;6.086;2022-08-19T08:14:49;22.10;99.90
52415;DHT22;38340;52.964;6.086;2022-08-19T08:17:16;22.20;99.90
52415;DHT22;38340;52.964;6.086;2022-08-19T08:19:43;22.30;99.90
52415;DHT22;38340;52.964;6.086;2022-08-19T08:22:10;22.30;99.90
52415;DHT22;38340;52.964;6.086;2022-08-19T08:25:05;22.30;99.90
52415;DHT22;38340;52.964;6.086;2022-08-19T08:27:34;22.30;99.90
52415;DHT22;38340;52.964;6.086;2022-08-19T08:30:00;22.40;99.90
52415;DHT22;38340;52.964;6.086;2022-08-19T08:32:26;22.40;99.90
52415;DHT22;38340;52.964;6.086;2022-08-19T08:34:52;22.50;99.90
52415;DHT22;38340;52.964;6.086;2022-08-19T08:37:19;22.50;99.90
52415;DHT22;38340;52.964;6.086;2022-08-19T08:39:44;22.60;99.90
52415;DHT22;38340;52.964;6.086;2022-08-19T08:42:16;22.80;99.90
52415;DHT22;38340;52.964;6.086;2022-08-19T08:45:11;22.80;99.90
52415;DHT22;38340;52.964;6.086;2022-08-19T08:47:43;22.80;99.90
52415;DHT22;38340;52.964;6.086;2022-08-19T08:50:23;22.90;99.90
52415;DHT22;38340;52.964;6.086;2022-08-19T08:52:53;23.10;99.90
52415;DHT22;38340;52.964;6.086;2022-08-19T08:55:24;23.00;99.90
52415;DHT22;38340;52.964;6.086;2022-08-19T08:58:02;22.90;99.90
52415;DHT22;38340;52.964;6.086;2022-08-19T09:00:34;23.10;99.90
52415;DHT22;38340;52.964;6.086;2022-08-19T09:03:03;23.30;99.90
52415;DHT22;38340;52.964;6.086;2022-08-19T09:10:52;23.70;99.90
52415;DHT22;38340;52.964;6.086;2022-08-19T09:13:41;23.60;99.90
52415;DHT22;38340;52.964;6.086;2022-08-19T09:16:13;23.60;99.90
52415;DHT22;38340;52.964;6.086;2022-08-19T09:18:41;23.80;99.90
52415;DHT22;38340;52.964;6.086;2022-08-19T09:21:07;23.90;99.90
52415;DHT22;38340;52.964;6.086;2022-08-19T09:23:35;24.00;99.90
52415;DHT22;38340;52.964;6.086;2022-08-19T09:26:01;24.30;99.90
52415;DHT22;38340;52.964;6.086;2022-08-19T09:28:26;24.50;99.90
52415;DHT22;38340;52.964;6.086;2022-08-19T09:30:53;24.60;99.90
52415;DHT22;38340;52.964;6.086;2022-08-19T09:33:19;24.80;99.90
52415;DHT22;38340;52.964;6.086;2022-08-19T09:35:45;24.50;99.90
52415;DHT22;38340;52.964;6.086;2022-08-19T09:38:11;24.60;99.90
52415;DHT22;38340;52.964;6.086;2022-08-19T09:40:37;24.50;99.90
52415;DHT22;38340;52.964;6.086;2022-08-19T09:43:04;24.60;99.90
52415;DHT22;38340;52.964;6.086;2022-08-19T09:45:30;24.80;99.90
52415;DHT22;38340;52.964;6.086;2022-08-19T09:47:56;25.10;99.90
52415;DHT22;38340;52.964;6.086;2022-08-19T09:50:23;25.10;99.90
52415;DHT22;38340;52.964;6.086;2022-08-19T09:52:49;25.10;99.90
52415;DHT22;38340;52.964;6.086;2022-08-19T09:55:15;25.30;99.90
52415;DHT22;38340;52.964;6.086;2022-08-19T09:57:41;25.30;99.90
52415;DHT22;38340;52.964;6.086;2022-08-19T10:00:08;25.10;99.90
52415;DHT22;38340;52.964;6.086;2022-08-19T10:02:35;25.00;99.90
52415;DHT22;38340;52.964;6.086;2022-08-19T10:05:01;25.10;99.90
52415;DHT22;38340;52.964;6.086;2022-08-19T10:07:45;25.10;99.90
52415;DHT22;38340;52.964;6.086;2022-08-19T10:10:11;25.10;99.90
52415;DHT22;38340;52.964;6.086;2022-08-19T10:12:37;25.20;99.90
52415;DHT22;38340;52.964;6.086;2022-08-19T10:15:04;25.10;99.90
52415;DHT22;38340;52.964;6.086;2022-08-19T10:17:32;25.30;99.90
52415;DHT22;38340;52.964;6.086;2022-08-19T10:20:01;25.50;99.90
52415;DHT22;38340;52.964;6.086;2022-08-19T10:22:28;25.80;99.90
52415;DHT22;38340;52.964;6.086;2022-08-19T10:24:54;25.90;99.90
52415;DHT22;38340;52.964;6.086;2022-08-19T10:27:20;25.70;99.90
52415;DHT22;38340;52.964;6.086;2022-08-19T10:29:46;25.40;99.90
52415;DHT22;38340;52.964;6.086;2022-08-19T10:32:13;25.40;99.90
52415;DHT22;38340;52.964;6.086;2022-08-19T10:34:39;25.30;99.90
52415;DHT22;38340;52.964;6.086;2022-08-19T10:37:05;25.40;99.90
52415;DHT22;38340;52.964;6.086;2022-08-19T10:39:34;25.40;99.90
52415;DHT22;38340;52.964;6.086;2022-08-19T10:42:05;25.50;99.90
52415;DHT22;38340;52.964;6.086;2022-08-19T10:44:32;25.50;99.90
52415;DHT22;38340;52.964;6.086;2022-08-19T10:46:57;25.60;99.90
52415;DHT22;38340;52.964;6.086;2022-08-19T10:49:24;25.80;99.90
52415;DHT22;38340;52.964;6.086;2022-08-19T10:51:50;25.90;99.90
52415;DHT22;38340;52.964;6.086;2022-08-19T10:54:34;25.90;99.90
52415;DHT22;38340;52.964;6.086;2022-08-19T10:57:18;26.20;99.90
52415;DHT22;38340;52.964;6.086;2022-08-19T10:59:44;26.30;99.90
52415;DHT22;38340;52.964;6.086;2022-08-19T11:02:11;26.20;99.90
52415;DHT22;38340;52.964;6.086;2022-08-19T11:04:39;26.40;99.90
52415;DHT22;38340;52.964;6.086;2022-08-19T11:07:05;26.70;99.90
52415;DHT22;38340;52.964;6.086;2022-08-19T11:09:31;26.80;99.90
52415;DHT22;38340;52.964;6.086;2022-08-19T11:12:01;27.10;99.90
52415;DHT22;38340;52.964;6.086;2022-08-19T11:14:27;26.90;99.90
52415;DHT22;38340;52.964;6.086;2022-08-19T11:16:53;26.70;99.90
52415;DHT22;38340;52.964;6.086;2022-08-19T11:19:22;26.70;99.90
52415;DHT22;38340;52.964;6.086;2022-08-19T11:21:50;26.90;99.90
52415;DHT22;38340;52.964;6.086;2022-08-19T11:24:21;27.20;99.90
52415;DHT22;38340;52.964;6.086;2022-08-19T11:26:51;27.30;99.90
52415;DHT22;38340;52.964;6.086;2022-08-19T11:29:19;27.20;99.90
52415;DHT22;38340;52.964;6.086;2022-08-19T11:31:47;26.90;99.90
52415;DHT22;38340;52.964;6.086;2022-08-19T11:34:17;26.90;99.90
52415;DHT22;38340;52.964;6.086;2022-08-19T11:36:45;26.90;99.90
52415;DHT22;38340;52.964;6.086;2022-08-19T11:39:14;27.20;99.90
52415;DHT22;38340;52.964;6.086;2022-08-19T11:41:40;27.30;99.90
52415;DHT22;38340;52.964;6.086;2022-08-19T11:44:06;27.30;99.90
52415;DHT22;38340;52.964;6.086;2022-08-19T11:46:37;27.20;99.90
52415;DHT22;38340;52.964;6.086;2022-08-19T11:49:04;27.40;99.90
52415;DHT22;38340;52.964;6.086;2022-08-19T11:51:32;27.20;99.90
52415;DHT22;38340;52.964;6.086;2022-08-19T11:53:59;27.00;99.90
52415;DHT22;38340;52.964;6.086;2022-08-19T11:56:27;26.90;99.90
52415;DHT22;38340;52.964;6.086;2022-08-19T11:58:53;26.80;99.90
52415;DHT22;38340;52.964;6.086;2022-08-19T12:01:21;26.80;99.90
52415;DHT22;38340;52.964;6.086;2022-08-19T12:03:49;26.40;99.90
52415;DHT22;38340;52.964;6.086;2022-08-19T12:06:18;26.40;99.90
52415;DHT22;38340;52.964;6.086;2022-08-19T12:08:45;26.80;99.90
52415;DHT22;38340;52.964;6.086;2022-08-19T12:11:12;26.90;99.90
52415;DHT22;38340;52.964;6.086;2022-08-19T12:13:38;27.10;99.90
52415;DHT22;38340;52.964;6.086;2022-08-19T12:16:12;27.40;99.90
52415;DHT22;38340;52.964;6.086;2022-08-19T12:18:39;27.40;99.90
52415;DHT22;38340;52.964;6.086;2022-08-19T12:21:08;27.50;99.90
52415;DHT22;38340;52.964;6.086;2022-08-19T12:23:35;27.60;99.90
52415;DHT22;38340;52.964;6.086;2022-08-19T12:26:02;27.70;99.90
52415;DHT22;38340;52.964;6.086;2022-08-19T12:28:28;28.00;99.90
52415;DHT22;38340;52.964;6.086;2022-08-19T12:30:55;28.00;99.90
52415;DHT22;38340;52.964;6.086;2022-08-19T12:33:21;27.70;99.90
52415;DHT22;38340;52.964;6.086;2022-08-19T12:35:50;27.60;99.90
52415;DHT22;38340;52.964;6.086;2022-08-19T12:38:16;27.40;99.90
52415;DHT22;38340;52.964;6.086;2022-08-19T12:40:48;27.30;99.90
52415;DHT22;38340;52.964;6.086;2022-08-19T12:43:15;27.60;99.90
52415;DHT22;38340;52.964;6.086;2022-08-19T12:45:44;27.80;99.90
52415;DHT22;38340;52.964;6.086;2022-08-19T12:48:10;27.80;99.90
52415;DHT22;38340;52.964;6.086;2022-08-19T12:50:39;27.80;99.90
52415;DHT22;38340;52.964;6.086;2022-08-19T12:53:04;27.80;99.90
52415;DHT22;38340;52.964;6.086;2022-08-19T12:55:30;28.00;99.90
52415;DHT22;38340;52.964;6.086;2022-08-19T12:57:56;28.10;99.90
52415;DHT22;38340;52.964;6.086;2022-08-19T13:00:22;27.90;99.90
52415;DHT22;38340;52.964;6.086;2022-08-19T13:02:51;28.00;99.90
52415;DHT22;38340;52.964;6.086;2022-08-19T13:05:26;28.00;99.90
52415;DHT22;38340;52.964;6.086;2022-08-19T13:07:53;28.10;99.90
52415;DHT22;38340;52.964;6.086;2022-08-19T13:10:26;28.00;99.90
52415;DHT22;38340;52.964;6.086;2022-08-19T13:12:53;27.60;99.90
52415;DHT22;38340;52.964;6.086;2022-08-19T13:15:20;27.80;99.90
52415;DHT22;38340;52.964;6.086;2022-08-19T13:17:51;27.70;99.90
52415;DHT22;38340;52.964;6.086;2022-08-19T13:20:19;27.60;99.90
52415;DHT22;38340;52.964;6.086;2022-08-19T13:22:48;27.50;99.90
52415;DHT22;38340;52.964;6.086;2022-08-19T13:25:15;27.60;99.90
52415;DHT22;38340;52.964;6.086;2022-08-19T13:27:43;27.50;99.90
52415;DHT22;38340;52.964;6.086;2022-08-19T13:30:11;27.40;99.90
52415;DHT22;38340;52.964;6.086;2022-08-19T13:32:56;27.30;99.90
52415;DHT22;38340;52.964;6.086;2022-08-19T13:35:50;26.80;99.90
52415;DHT22;38340;52.964;6.086;2022-08-19T13:38:18;26.80;99.90
52415;DHT22;38340;52.964;6.086;2022-08-19T13:40:46;26.60;99.90
52415;DHT22;38340;52.964;6.086;2022-08-19T13:43:13;26.20;99.90
52415;DHT22;38340;52.964;6.086;2022-08-19T13:45:39;25.70;99.90
52415;DHT22;38340;52.964;6.086;2022-08-19T13:48:06;25.50;99.90
52415;DHT22;38340;52.964;6.086;2022-08-19T13:50:43;25.30;99.90
52415;DHT22;38340;52.964;6.086;2022-08-19T13:53:10;25.20;99.90
52415;DHT22;38340;52.964;6.086;2022-08-19T13:55:41;25.00;99.90
52415;DHT22;38340;52.964;6.086;2022-08-19T13:58:08;24.70;99.90
52415;DHT22;38340;52.964;6.086;2022-08-19T14:00:36;24.40;99.90
52415;DHT22;38340;52.964;6.086;2022-08-19T14:03:03;24.30;99.90
52415;DHT22;38340;52.964;6.086;2022-08-19T14:05:29;24.20;99.90
52415;DHT22;38340;52.964;6.086;2022-08-19T14:07:55;24.10;99.90
52415;DHT22;38340;52.964;6.086;2022-08-19T14:10:22;24.20;99.90
52415;DHT22;38340;52.964;6.086;2022-08-19T14:12:49;24.30;99.90
52415;DHT22;38340;52.964;6.086;2022-08-19T14:15:15;24.50;99.90
52415;DHT22;38340;52.964;6.086;2022-08-19T14:17:43;24.70;99.90
52415;DHT22;38340;52.964;6.086;2022-08-19T14:20:10;24.80;99.90
52415;DHT22;38340;52.964;6.086;2022-08-19T14:22:40;24.90;99.90
52415;DHT22;38340;52.964;6.086;2022-08-19T14:25:09;25.00;99.90
52415;DHT22;38340;52.964;6.086;2022-08-19T14:27:35;25.00;99.90
52415;DHT22;38340;52.964;6.086;2022-08-19T14:30:03;25.00;99.90
52415;DHT22;38340;52.964;6.086;2022-08-19T14:32:29;25.10;99.90
52415;DHT22;38340;52.964;6.086;2022-08-19T14:34:55;25.20;99.90
52415;DHT22;38340;52.964;6.086;2022-08-19T14:37:21;25.10;99.90
52415;DHT22;38340;52.964;6.086;2022-08-19T14:39:47;25.20;99.90
52415;DHT22;38340;52.964;6.086;2022-08-19T14:42:13;25.10;99.90
52415;DHT22;38340;52.964;6.086;2022-08-19T14:44:41;25.20;99.90
52415;DHT22;38340;52.964;6.086;2022-08-19T14:47:06;25.40;99.90
52415;DHT22;38340;52.964;6.086;2022-08-19T14:49:33;25.50;99.90
52415;DHT22;38340;52.964;6.086;2022-08-19T14:51:59;25.60;99.90
52415;DHT22;38340;52.964;6.086;2022-08-19T14:54:25;25.50;99.90
52415;DHT22;38340;52.964;6.086;2022-08-19T14:56:51;25.40;99.90
52415;DHT22;38340;52.964;6.086;2022-08-19T14:59:17;25.20;99.90
52415;DHT22;38340;52.964;6.086;2022-08-19T15:01:43;25.00;99.90
52415;DHT22;38340;52.964;6.086;2022-08-19T15:04:09;24.80;99.90
52415;DHT22;38340;52.964;6.086;2022-08-19T15:06:35;24.70;99.90
52415;DHT22;38340;52.964;6.086;2022-08-19T15:09:01;24.60;99.90
52415;DHT22;38340;52.964;6.086;2022-08-19T15:11:29;24.50;99.90
52415;DHT22;38340;52.964;6.086;2022-08-19T15:13:55;24.40;99.90
52415;DHT22;38340;52.964;6.086;2022-08-19T15:16:22;24.40;99.90
52415;DHT22;38340;52.964;6.086;2022-08-19T15:18:54;24.30;99.90
52415;DHT22;38340;52.964;6.086;2022-08-19T15:21:20;24.20;99.90
52415;DHT22;38340;52.964;6.086;2022-08-19T15:23:47;24.20;99.90
52415;DHT22;38340;52.964;6.086;2022-08-19T15:26:14;24.30;99.90
52415;DHT22;38340;52.964;6.086;2022-08-19T15:28:41;24.30;99.90
52415;DHT22;38340;52.964;6.086;2022-08-19T15:31:07;24.30;99.90
52415;DHT22;38340;52.964;6.086;2022-08-19T15:33:35;24.30;99.90
52415;DHT22;38340;52.964;6.086;2022-08-19T15:36:05;24.40;99.90
52415;DHT22;38340;52.964;6.086;2022-08-19T15:38:32;24.40;99.90
52415;DHT22;38340;52.964;6.086;2022-08-19T15:41:00;24.50;99.90